createdAt,value
2018-05-07T00:01:38.066Z,98336.42
2018-05-07T00:04:05.662Z,98341.94
2018-05-07T00:06:33.253Z,98336.44
2018-05-07T00:09:00.965Z,98334.68
2018-05-07T00:11:28.553Z,98338.18
2018-05-07T00:13:56.166Z,98336.02
2018-05-07T00:16:23.756Z,98330.17
2018-05-07T00:18:51.382Z,98329.39
2018-05-07T00:21:18.972Z,98329.88
2018-05-07T00:23:46.562Z,98325.91
2018-05-07T00:26:16.905Z,98329.69
2018-05-07T00:28:44.527Z,98333.64
2018-05-07T00:31:12.152Z,98335.42
2018-05-07T00:33:39.813Z,98332.55
2018-05-07T00:36:07.422Z,98325.50
2018-05-07T00:38:35.012Z,98331.80
2018-05-07T00:41:02.598Z,98337.17
2018-05-07T00:43:30.202Z,98332.86
2018-05-07T00:45:57.818Z,98336.77
2018-05-07T00:48:25.423Z,98330.13
2018-05-07T00:50:53.015Z,98331.23
2018-05-07T00:53:20.881Z,98342.83
2018-05-07T00:55:48.472Z,98330.83
2018-05-07T00:58:16.065Z,98328.11
2018-05-07T01:00:43.727Z,98329.21
2018-05-07T01:03:11.391Z,98330.89
2018-05-07T01:05:39.004Z,98334.80
2018-05-07T01:08:06.662Z,98331.83
2018-05-07T01:10:34.619Z,98334.62
2018-05-07T01:13:02.206Z,98334.45
2018-05-07T01:15:29.810Z,98336.54
2018-05-07T01:17:57.415Z,98338.38
2018-05-07T01:20:25.002Z,98335.98
2018-05-07T01:22:52.611Z,98336.70
2018-05-07T01:25:20.259Z,98331.34
2018-05-07T01:27:47.840Z,98329.97
2018-05-07T01:30:15.528Z,98333.08
2018-05-07T01:32:43.148Z,98329.06
2018-05-07T01:35:10.742Z,98331.78
2018-05-07T01:37:38.323Z,98335.14
2018-05-07T01:40:05.966Z,98324.33
2018-05-07T01:42:34.292Z,98331.17
2018-05-07T01:45:02.107Z,98334.05
2018-05-07T01:47:29.698Z,98337.55
2018-05-07T01:49:57.291Z,98335.61
2018-05-07T01:52:24.904Z,98333.30
2018-05-07T01:54:52.504Z,98329.06
2018-05-07T01:57:20.318Z,98335.09
2018-05-07T01:59:47.918Z,98328.87
2018-05-07T02:02:15.511Z,98331.73
2018-05-07T02:04:43.121Z,98329.42
2018-05-07T02:07:10.719Z,98331.78
2018-05-07T02:09:38.343Z,98329.31
2018-05-07T02:12:05.941Z,98328.64
2018-05-07T02:14:33.599Z,98324.81
2018-05-07T02:17:01.185Z,98324.22
2018-05-07T02:19:28.775Z,98316.59
2018-05-07T02:21:56.386Z,98321.50
2018-05-07T02:24:23.970Z,98320.86
2018-05-07T02:26:51.583Z,98320.11
2018-05-07T02:29:19.171Z,98323.66
2018-05-07T02:31:47.106Z,98312.72
2018-05-07T02:34:15.203Z,98312.61
2018-05-07T02:36:42.799Z,98313.33
2018-05-07T02:39:10.422Z,98311.69
2018-05-07T02:41:38.013Z,98313.03
2018-05-07T02:44:05.631Z,98307.37
2018-05-07T02:46:33.225Z,98300.18
2018-05-07T02:49:01.029Z,98304.33
2018-05-07T02:51:28.623Z,98304.02
2018-05-07T02:53:56.216Z,98305.36
2018-05-07T02:56:23.825Z,98307.70
2018-05-07T02:58:51.424Z,98307.98
2018-05-07T03:01:19.049Z,98304.42
2018-05-07T03:03:46.653Z,98310.48
2018-05-07T03:06:14.285Z,98310.40
2018-05-07T03:08:41.905Z,98307.05
2018-05-07T03:11:09.505Z,98305.82
2018-05-07T03:13:37.123Z,98303.67
2018-05-07T03:16:04.710Z,98300.70
2018-05-07T03:18:32.326Z,98304.62
2018-05-07T03:20:59.920Z,98299.36
2018-05-07T03:23:27.769Z,98305.80
2018-05-07T03:25:55.319Z,98303.82
2018-05-07T03:28:22.994Z,98297.98
2018-05-07T03:30:50.608Z,98305.88
2018-05-07T03:33:18.202Z,98306.27
2018-05-07T03:35:45.830Z,98304.87
2018-05-07T03:38:13.430Z,98302.94
2018-05-07T03:40:41.057Z,98300.56
2018-05-07T03:43:08.654Z,98301.83
2018-05-07T03:45:36.243Z,98298.18
2018-05-07T03:48:03.863Z,98297.78
2018-05-07T03:50:31.458Z,98293.68
2018-05-07T03:52:59.114Z,98302.47
2018-05-07T03:55:26.718Z,98300.23
2018-05-07T03:57:54.726Z,98302.41
2018-05-07T04:00:22.317Z,98295.78
2018-05-07T04:02:49.903Z,98297.62
2018-05-07T04:05:19.346Z,98297.88
2018-05-07T04:07:46.930Z,98295.23
2018-05-07T04:10:14.548Z,98299.92
2018-05-07T04:12:42.140Z,98295.94
2018-05-07T04:15:09.768Z,98295.09
2018-05-07T04:17:49.075Z,98302.94
2018-05-07T04:20:28.571Z,98294.23
2018-05-07T04:23:07.961Z,98295.37
2018-05-07T04:25:36.170Z,98292.66
2018-05-07T04:28:03.700Z,98295.38
2018-05-07T04:30:31.291Z,98295.92
2018-05-07T04:32:58.916Z,98294.70
2018-05-07T04:35:26.509Z,98291.75
2018-05-07T04:37:54.142Z,98301.08
2018-05-07T04:40:21.797Z,98292.67
2018-05-07T04:42:49.763Z,98299.45
2018-05-07T04:45:17.350Z,98301.97
2018-05-07T04:47:44.946Z,98297.00
2018-05-07T04:50:12.558Z,98297.92
2018-05-07T04:52:40.154Z,98301.92
2018-05-07T04:55:08.423Z,98296.07
2018-05-07T04:57:36.007Z,98306.16
2018-05-07T05:00:03.814Z,98304.26
2018-05-07T05:02:31.411Z,98301.30
2018-05-07T05:04:59.008Z,98300.63
2018-05-07T05:07:26.631Z,98300.07
2018-05-07T05:09:54.235Z,98292.22
2018-05-07T05:12:21.852Z,98298.09
2018-05-07T05:14:49.477Z,98296.13
2018-05-07T05:17:17.249Z,98287.59
2018-05-07T05:19:44.833Z,98297.76
2018-05-07T05:22:12.431Z,98293.53
2018-05-07T05:24:40.047Z,98289.89
2018-05-07T05:27:07.643Z,98292.20
2018-05-07T05:29:35.491Z,98296.30
2018-05-07T05:32:03.074Z,98293.59
2018-05-07T05:34:30.891Z,98288.59
2018-05-07T05:36:58.481Z,98295.67
2018-05-07T05:39:26.158Z,98296.09
2018-05-07T05:41:53.778Z,98291.40
2018-05-07T05:44:21.377Z,98293.22
2018-05-07T05:46:48.991Z,98293.02
2018-05-07T05:49:16.575Z,98295.00
2018-05-07T05:51:44.239Z,98300.77
2018-05-07T05:54:11.849Z,98298.32
2018-05-07T05:56:39.438Z,98302.41
2018-05-07T05:59:07.058Z,98295.63
2018-05-07T06:01:34.648Z,98300.97
2018-05-07T06:04:02.297Z,98296.38
2018-05-07T06:06:29.903Z,98295.41
2018-05-07T06:08:57.904Z,98294.45
2018-05-07T06:11:25.515Z,98295.16
2018-05-07T06:13:53.108Z,98295.31
2018-05-07T06:16:20.722Z,98300.73
2018-05-07T06:18:48.506Z,98294.41
2018-05-07T06:21:16.259Z,98288.31
2018-05-07T06:23:43.843Z,98289.19
2018-05-07T06:26:11.787Z,98289.75
2018-05-07T06:28:39.521Z,98292.93
2018-05-07T06:31:07.122Z,98288.02
2018-05-07T06:33:34.774Z,98286.53
2018-05-07T06:36:03.191Z,98293.00
2018-05-07T06:38:30.830Z,98298.34
2018-05-07T06:40:58.447Z,98289.89
2018-05-07T06:43:26.265Z,98295.17
2018-05-07T06:45:53.888Z,98286.87
2018-05-07T06:48:21.476Z,98287.85
2018-05-07T06:50:49.087Z,98290.23
2018-05-07T06:53:16.963Z,98283.82
2018-05-07T06:55:44.575Z,98285.70
2018-05-07T06:58:12.177Z,98289.04
2018-05-07T07:00:39.824Z,98284.91
2018-05-07T07:03:07.410Z,98282.00
2018-05-07T07:05:34.997Z,98279.27
2018-05-07T07:08:02.695Z,98277.50
2018-05-07T07:10:30.246Z,98277.41
2018-05-07T07:12:57.872Z,98276.05
2018-05-07T07:15:25.464Z,98276.73
2018-05-07T07:17:53.062Z,98273.00
2018-05-07T07:20:20.671Z,98276.55
2018-05-07T07:22:48.272Z,98276.72
2018-05-07T07:25:16.198Z,98274.70
2018-05-07T07:27:43.787Z,98275.52
2018-05-07T07:30:11.388Z,98275.72
2018-05-07T07:32:39.010Z,98270.95
2018-05-07T07:35:06.613Z,98269.31
2018-05-07T07:37:34.230Z,98265.02
2018-05-07T07:40:01.843Z,98262.33
2018-05-07T07:42:29.635Z,98260.10
2018-05-07T07:44:57.238Z,98260.77
2018-05-07T07:47:24.884Z,98257.98
2018-05-07T07:49:52.498Z,98252.94
2018-05-07T07:52:20.098Z,98260.61
2018-05-07T07:54:47.705Z,98251.83
2018-05-07T07:57:15.298Z,98250.81
2018-05-07T07:59:42.914Z,98249.56
2018-05-07T08:02:10.499Z,98249.34
2018-05-07T08:04:38.129Z,98246.58
2018-05-07T08:07:05.759Z,98243.03
2018-05-07T08:09:33.345Z,98243.35
2018-05-07T08:12:00.990Z,98245.94
2018-05-07T08:14:28.561Z,98240.36
2018-05-07T08:16:56.198Z,98240.51
2018-05-07T08:19:23.838Z,98239.30
2018-05-07T08:21:51.436Z,98235.30
2018-05-07T08:24:19.086Z,98237.95
2018-05-07T08:26:46.979Z,98239.14
2018-05-07T08:29:14.581Z,98232.37
2018-05-07T08:31:42.162Z,98232.30
2018-05-07T08:34:09.841Z,98225.31
2018-05-07T08:36:37.447Z,98227.55
2018-05-07T08:39:05.949Z,98225.24
2018-05-07T08:41:33.900Z,98227.26
2018-05-07T08:44:01.502Z,98225.84
2018-05-07T08:46:29.113Z,98224.30
2018-05-07T08:48:56.858Z,98228.05
2018-05-07T08:51:24.446Z,98224.12
2018-05-07T08:53:52.120Z,98213.75
2018-05-07T08:56:19.702Z,98212.74
2018-05-07T08:58:47.582Z,98208.38
2018-05-07T09:01:15.167Z,98209.97
2018-05-07T09:03:42.804Z,98215.09
2018-05-07T09:06:10.422Z,98214.39
2018-05-07T09:08:38.070Z,98203.50
2018-05-07T09:11:05.670Z,98209.87
2018-05-07T09:13:33.262Z,98204.59
2018-05-07T09:16:01.136Z,98202.98
2018-05-07T09:18:28.722Z,98206.41
2018-05-07T09:20:56.310Z,98199.00
2018-05-07T09:23:23.930Z,98196.51
2018-05-07T09:25:51.516Z,98197.52
2018-05-07T09:28:19.133Z,98202.66
2018-05-07T09:30:46.717Z,98196.11
2018-05-07T09:33:14.328Z,98188.37
2018-05-07T09:35:41.910Z,98188.53
2018-05-07T09:38:09.513Z,98186.51
2018-05-07T09:40:37.119Z,98182.45
2018-05-07T09:43:04.759Z,98186.39
2018-05-07T09:45:32.471Z,98186.39
2018-05-07T09:48:00.112Z,98185.36
2018-05-07T09:50:27.901Z,98184.25
2018-05-07T09:52:55.759Z,98174.72
2018-05-07T09:55:23.351Z,98172.52
2018-05-07T09:58:02.713Z,98168.55
2018-05-07T10:00:36.029Z,98170.81
2018-05-07T10:03:03.652Z,98171.23
2018-05-07T10:05:31.250Z,98159.47
2018-05-07T10:07:59.150Z,98164.46
2018-05-07T10:10:29.589Z,98153.60
2018-05-07T10:12:57.211Z,98151.83
2018-05-07T10:15:24.830Z,98148.61
2018-05-07T10:17:52.425Z,98154.88
2018-05-07T10:20:20.104Z,98147.05
2018-05-07T10:22:47.696Z,98153.77
2018-05-07T10:25:15.647Z,98148.20
2018-05-07T10:27:43.235Z,98135.70
2018-05-07T10:30:10.816Z,98140.95
2018-05-07T10:32:38.426Z,98142.80
2018-05-07T10:35:06.450Z,98132.95
2018-05-07T10:37:34.055Z,98139.48
2018-05-07T10:40:01.755Z,98139.03
2018-05-07T10:42:29.548Z,98130.21
2018-05-07T10:44:57.149Z,98121.67
2018-05-07T10:47:24.828Z,98117.86
2018-05-07T10:49:52.458Z,98120.34
2018-05-07T10:52:20.049Z,98117.63
2018-05-07T10:54:47.671Z,98114.41
2018-05-07T10:57:15.263Z,98108.20
2018-05-07T10:59:42.986Z,98106.16
2018-05-07T11:02:10.594Z,98101.66
2018-05-07T11:04:38.182Z,98105.51
2018-05-07T11:07:05.799Z,98102.44
2018-05-07T11:09:33.393Z,98099.50
2018-05-07T11:12:01.024Z,98094.06
2018-05-07T11:14:28.823Z,98094.36
2018-05-07T11:16:56.482Z,98080.41
2018-05-07T11:19:24.079Z,98083.80
2018-05-07T11:21:51.700Z,98077.94
2018-05-07T11:24:19.340Z,98083.39
2018-05-07T11:26:47.020Z,98078.05
2018-05-07T11:29:14.626Z,98082.41
2018-05-07T11:31:42.273Z,98073.94
2018-05-07T11:34:09.890Z,98062.98
2018-05-07T11:36:37.580Z,98066.41
2018-05-07T11:39:06.063Z,98067.66
2018-05-07T11:41:33.666Z,98062.34
2018-05-07T11:44:01.481Z,98050.30
2018-05-07T11:46:29.101Z,98053.12
2018-05-07T11:48:56.750Z,98054.38
2018-05-07T11:51:24.403Z,98047.86
2018-05-07T11:53:52.046Z,98048.00
2018-05-07T11:56:19.638Z,98043.27
2018-05-07T11:58:47.429Z,98042.91
2018-05-07T12:01:15.225Z,98041.41
2018-05-07T12:03:42.869Z,98032.63
2018-05-07T12:06:10.531Z,98022.00
2018-05-07T12:08:38.142Z,98020.61
2018-05-07T12:11:06.086Z,98024.75
2018-05-07T12:13:33.697Z,98014.86
2018-05-07T12:16:01.342Z,98008.52
2018-05-07T12:18:29.058Z,98008.16
2018-05-07T12:20:56.699Z,98004.20
2018-05-07T12:23:24.322Z,98007.39
2018-05-07T12:25:52.075Z,98005.80
2018-05-07T12:28:19.707Z,97998.89
2018-05-07T12:30:47.303Z,98002.45
2018-05-07T12:33:14.916Z,98000.48
2018-05-07T12:35:42.597Z,98003.64
2018-05-07T12:38:10.265Z,98006.23
2018-05-07T12:40:37.868Z,97997.33
2018-05-07T12:43:05.496Z,97991.80
2018-05-07T12:45:33.105Z,97996.75
2018-05-07T12:48:00.707Z,97989.61
2018-05-07T12:50:28.322Z,97979.94
2018-05-07T12:52:55.948Z,97973.14
2018-05-07T12:55:23.556Z,97974.73
2018-05-07T12:57:51.178Z,97967.39
2018-05-07T13:00:18.807Z,97955.94
2018-05-07T13:02:46.404Z,97957.64
2018-05-07T13:05:14.030Z,97956.95
2018-05-07T13:07:41.643Z,97960.88
2018-05-07T13:10:09.269Z,97948.98
2018-05-07T13:12:36.989Z,97944.10
2018-05-07T13:15:04.893Z,97935.96
2018-05-07T13:17:32.500Z,97939.05
2018-05-07T13:20:00.092Z,97932.91
2018-05-07T13:22:27.712Z,97931.84
2018-05-07T13:24:55.402Z,97928.94
2018-05-07T13:27:22.998Z,97925.14
2018-05-07T13:29:50.590Z,97927.55
2018-05-07T13:32:18.212Z,97922.80
2018-05-07T13:34:45.803Z,97918.41
2018-05-07T13:37:13.424Z,97905.95
2018-05-07T13:39:41.022Z,97906.36
2018-05-07T13:42:08.630Z,97899.73
2018-05-07T13:44:36.216Z,97889.69
2018-05-07T13:47:03.835Z,97896.08
2018-05-07T13:49:31.423Z,97899.22
2018-05-07T13:51:59.057Z,97891.79
2018-05-07T13:54:26.752Z,97883.44
2018-05-07T13:56:54.432Z,97883.73
2018-05-07T13:59:22.004Z,97883.90
2018-05-07T14:01:49.686Z,97885.99
2018-05-07T14:04:17.341Z,97883.45
2018-05-07T14:06:44.937Z,97880.08
2018-05-07T14:09:12.548Z,97875.55
2018-05-07T14:11:40.135Z,97883.19
2018-05-07T14:14:07.991Z,97881.45
2018-05-07T14:16:35.578Z,97873.34
2018-05-07T14:19:03.195Z,97878.30
2018-05-07T14:21:30.866Z,97863.80
2018-05-07T14:23:58.462Z,97862.30
2018-05-07T14:26:26.085Z,97863.07
2018-05-07T14:28:53.679Z,97860.62
2018-05-07T14:31:21.303Z,97854.11
2018-05-07T14:33:48.888Z,97852.78
2018-05-07T14:36:16.516Z,97854.16
2018-05-07T14:38:44.135Z,97849.44
2018-05-07T14:41:11.770Z,97848.84
2018-05-07T14:43:39.487Z,97845.69
2018-05-07T14:46:07.128Z,97841.26
2018-05-07T14:48:34.744Z,97839.48
2018-05-07T14:51:02.361Z,97828.66
2018-05-07T14:53:29.964Z,97832.20
2018-05-07T14:55:57.591Z,97839.12
2018-05-07T14:58:25.183Z,97826.29
2018-05-07T15:00:52.785Z,97833.98
2018-05-07T15:03:20.370Z,97821.14
2018-05-07T15:05:47.975Z,97826.02
2018-05-07T15:08:15.569Z,97824.48
2018-05-07T15:10:43.186Z,97820.93
2018-05-07T15:13:10.798Z,97822.33
2018-05-07T15:15:38.738Z,97818.41
2018-05-07T15:18:06.332Z,97819.78
2018-05-07T15:20:33.943Z,97816.83
2018-05-07T15:23:01.535Z,97810.09
2018-05-07T15:25:29.166Z,97815.61
2018-05-07T15:27:56.768Z,97812.44
2018-05-07T15:30:24.377Z,97810.88
2018-05-07T15:32:52.100Z,97811.07
2018-05-07T15:35:19.694Z,97805.75
2018-05-07T15:37:47.311Z,97803.22
2018-05-07T15:40:14.903Z,97803.02
2018-05-07T15:42:42.507Z,97799.07
2018-05-07T15:45:10.093Z,97793.95
2018-05-07T15:47:38.138Z,97796.31
2018-05-07T15:50:05.721Z,97797.48
2018-05-07T15:52:33.306Z,97793.37
2018-05-07T15:55:00.927Z,97795.33
2018-05-07T15:57:28.518Z,97787.25
2018-05-07T15:59:56.132Z,97787.44
2018-05-07T16:02:23.726Z,97790.02
2018-05-07T16:04:51.370Z,97785.48
2018-05-07T16:07:18.976Z,97794.98
2018-05-07T16:09:46.583Z,97783.36
2018-05-07T16:12:14.229Z,97786.09
2018-05-07T16:14:41.817Z,97782.95
2018-05-07T16:17:09.436Z,97771.92
2018-05-07T16:19:37.046Z,97782.97
2018-05-07T16:22:04.751Z,97770.73
2018-05-07T16:24:32.274Z,97775.28
2018-05-07T16:26:59.913Z,97771.14
2018-05-07T16:29:27.531Z,97766.78
2018-05-07T16:31:55.244Z,97765.41
2018-05-07T16:34:22.830Z,97762.45
2018-05-07T16:36:50.443Z,97767.41
2018-05-07T16:39:18.104Z,97773.32
2018-05-07T16:41:45.701Z,97766.83
2018-05-07T16:44:13.317Z,97771.95
2018-05-07T16:46:40.912Z,97764.50
2018-05-07T16:49:08.721Z,97762.33
2018-05-07T16:51:36.304Z,97760.56
2018-05-07T16:54:03.915Z,97752.27
2018-05-07T16:56:31.585Z,97751.27
2018-05-07T16:58:59.808Z,97749.11
2018-05-07T17:01:27.418Z,97750.11
2018-05-07T17:03:55.004Z,97752.66
2018-05-07T17:06:22.612Z,97759.73
2018-05-07T17:08:50.203Z,97756.17
2018-05-07T17:11:17.952Z,97753.39
2018-05-07T17:13:45.551Z,97753.94
2018-05-07T17:16:13.142Z,97755.25
2018-05-07T17:18:40.750Z,97754.51
2018-05-07T17:21:08.343Z,97747.58
2018-05-07T17:23:36.003Z,97758.70
2018-05-07T17:26:03.595Z,97755.80
2018-05-07T17:28:31.634Z,97759.89
2018-05-07T17:30:59.224Z,97756.83
2018-05-07T17:33:26.845Z,97756.27
2018-05-07T17:35:54.445Z,97749.35
2018-05-07T17:38:22.069Z,97754.51
2018-05-07T17:40:49.683Z,97758.43
2018-05-07T17:43:17.277Z,97763.95
2018-05-07T17:46:00.368Z,97763.16
2018-05-07T17:48:39.719Z,97761.98
2018-05-07T17:51:07.788Z,97763.63
2018-05-07T17:53:35.413Z,97767.42
2018-05-07T17:56:03.673Z,97771.60
2018-05-07T17:58:31.310Z,97771.95
2018-05-07T18:00:58.917Z,97771.97
2018-05-07T18:03:26.538Z,97774.33
2018-05-07T18:05:54.122Z,97769.58
2018-05-07T18:08:21.918Z,97777.05
2018-05-07T18:10:49.580Z,97777.78
2018-05-07T18:13:17.131Z,97782.25
2018-05-07T18:15:44.784Z,97783.41
2018-05-07T18:18:12.379Z,97787.91
2018-05-07T18:20:40.470Z,97780.57
2018-05-07T18:23:08.060Z,97785.80
2018-05-07T18:25:35.651Z,97788.85
2018-05-07T18:28:03.254Z,97785.06
2018-05-07T18:30:31.050Z,97786.19
2018-05-07T18:32:58.500Z,97783.55
2018-05-07T18:35:26.091Z,97789.00
2018-05-07T18:37:53.898Z,97788.09
2018-05-07T18:40:21.547Z,97791.95
2018-05-07T18:42:49.139Z,97793.23
2018-05-07T18:45:16.884Z,97799.27
2018-05-07T18:47:44.473Z,97793.70
2018-05-07T18:50:12.099Z,97796.38
2018-05-07T18:52:39.697Z,97796.83
2018-05-07T18:55:07.505Z,97802.84
2018-05-07T18:57:35.102Z,97802.83
2018-05-07T19:00:02.702Z,97802.53
2018-05-07T19:02:30.384Z,97805.85
2018-05-07T19:04:57.976Z,97809.25
2018-05-07T19:07:25.595Z,97809.37
2018-05-07T19:09:53.183Z,97805.95
2018-05-07T19:12:20.966Z,97809.22
2018-05-07T19:14:48.552Z,97812.08
2018-05-07T19:17:16.145Z,97812.58
2018-05-07T19:19:43.783Z,97812.09
2018-05-07T19:22:11.385Z,97813.80
2018-05-07T19:24:39.379Z,97818.91
2018-05-07T19:27:06.970Z,97816.27
2018-05-07T19:29:34.567Z,97822.83
2018-05-07T19:32:02.196Z,97822.83
2018-05-07T19:34:29.795Z,97824.09
2018-05-07T19:36:57.694Z,97824.29
2018-05-07T19:39:25.286Z,97824.08
2018-05-07T19:41:52.875Z,97824.09
2018-05-07T19:44:20.494Z,97823.21
2018-05-07T19:46:48.099Z,97817.82
2018-05-07T19:49:15.735Z,97815.68
2018-05-07T19:51:43.324Z,97824.47
2018-05-07T19:54:11.053Z,97827.72
2018-05-07T19:56:38.651Z,97823.84
2018-05-07T19:59:06.428Z,97827.16
2018-05-07T20:01:34.041Z,97825.80
2018-05-07T20:04:01.664Z,97821.35
2018-05-07T20:06:29.274Z,97815.59
2018-05-07T20:08:56.858Z,97818.09
2018-05-07T20:11:24.671Z,97816.61
2018-05-07T20:13:52.269Z,97814.22
2018-05-07T20:16:19.858Z,97813.98
2018-05-07T20:18:47.474Z,97812.69
2018-05-07T20:21:15.063Z,97807.50
2018-05-07T20:23:42.679Z,97808.74
2018-05-07T20:26:10.290Z,97807.69
2018-05-07T20:28:38.102Z,97806.13
2018-05-07T20:31:05.688Z,97806.16
2018-05-07T20:33:33.290Z,97806.27
2018-05-07T20:36:00.911Z,97807.97
2018-05-07T20:38:28.504Z,97804.05
2018-05-07T20:40:56.114Z,97801.02
2018-05-07T20:43:23.707Z,97799.89
2018-05-07T20:45:51.737Z,97810.03
2018-05-07T20:48:19.346Z,97811.84
2018-05-07T20:50:46.934Z,97812.41
2018-05-07T20:53:14.564Z,97810.59
2018-05-07T20:55:42.163Z,97818.05
2018-05-07T20:58:09.774Z,97814.67
2018-05-07T21:00:38.203Z,97819.91
2018-05-07T21:03:05.840Z,97821.45
2018-05-07T21:05:33.426Z,97820.83
2018-05-07T21:08:01.168Z,97817.20
2018-05-07T21:10:28.896Z,97815.69
2018-05-07T21:12:56.675Z,97810.28
2018-05-07T21:15:24.297Z,97811.98
2018-05-07T21:17:51.896Z,97810.19
2018-05-07T21:20:19.519Z,97812.59
2018-05-07T21:22:47.127Z,97818.50
2018-05-07T21:25:14.735Z,97823.78
2018-05-07T21:27:42.352Z,97817.86
2018-05-07T21:30:09.938Z,97816.13
2018-05-07T21:32:37.585Z,97816.92
2018-05-07T21:35:05.183Z,97816.25
2018-05-07T21:37:33.061Z,97814.22
2018-05-07T21:40:00.652Z,97821.94
2018-05-07T21:42:28.239Z,97821.33
2018-05-07T21:44:55.886Z,97815.83
2018-05-07T21:47:23.503Z,97820.14
2018-05-07T21:49:51.118Z,97815.67
2018-05-07T21:52:18.715Z,97814.79
2018-05-07T21:54:46.701Z,97812.39
2018-05-07T21:57:14.293Z,97814.12
2018-05-07T21:59:41.879Z,97810.34
2018-05-07T22:02:09.505Z,97814.17
2018-05-07T22:04:37.111Z,97812.75
2018-05-07T22:07:04.729Z,97813.14
2018-05-07T22:09:32.319Z,97815.52
2018-05-07T22:11:59.940Z,97816.90
2018-05-07T22:14:27.547Z,97815.04
2018-05-07T22:16:55.156Z,97816.48
2018-05-07T22:19:22.823Z,97819.52
2018-05-07T22:21:50.413Z,97824.70
2018-05-07T22:24:18.028Z,97824.94
2018-05-07T22:26:45.615Z,97820.84
2018-05-07T22:29:13.241Z,97820.95
2018-05-07T22:31:40.838Z,97820.53
2018-05-07T22:34:08.426Z,97823.22
2018-05-07T22:36:36.038Z,97818.52
2018-05-07T22:39:03.697Z,97824.16
2018-05-07T22:41:31.285Z,97817.05
2018-05-07T22:43:58.883Z,97819.03
2018-05-07T22:46:26.689Z,97815.51
2018-05-07T22:48:54.283Z,97816.13
2018-05-07T22:51:21.890Z,97820.36
2018-05-07T22:53:49.517Z,97813.50
2018-05-07T22:56:17.103Z,97814.00
2018-05-07T22:58:44.710Z,97814.50
2018-05-07T23:01:12.298Z,97808.93
2018-05-07T23:03:40.419Z,97813.34
2018-05-07T23:06:07.966Z,97814.88
2018-05-07T23:08:35.560Z,97814.02
2018-05-07T23:11:03.188Z,97813.23
2018-05-07T23:13:30.788Z,97811.28
2018-05-07T23:15:58.638Z,97806.18
2018-05-07T23:18:26.241Z,97802.60
2018-05-07T23:20:53.841Z,97802.68
2018-05-07T23:23:21.462Z,97799.05
2018-05-07T23:25:49.066Z,97802.64
2018-05-07T23:28:16.696Z,97802.21
2018-05-07T23:30:44.285Z,97791.75
2018-05-07T23:33:11.909Z,97791.63
2018-05-07T23:35:39.505Z,97798.86
2018-05-07T23:38:07.265Z,97793.28
2018-05-07T23:40:34.860Z,97791.42
2018-05-07T23:43:02.446Z,97794.58
2018-05-07T23:45:30.060Z,97789.95
2018-05-07T23:47:57.665Z,97792.25
2018-05-07T23:50:25.274Z,97782.98
2018-05-07T23:52:52.868Z,97786.41
2018-05-07T23:55:20.510Z,97781.20
2018-05-07T23:57:48.105Z,97782.26
